This is the latest recevied weather packets stored in our database for station/object N5ZP. If no packets are shown the sender has not sent any weather packets the latest 10 day(s).
| Time | Temp. | Humidity | Pressure | Rain* | Wind** | Luminosity | Snow |
|---|---|---|---|---|---|---|---|
| 1778002110 | 30.56° C | 57% | 1001.9 hPa | 0 mm | - | 400 W/m² | - |
| 1778001808 | 30.56° C | 57% | 1002.1 hPa | 0 mm | - | 410 W/m² | - |
| 1778001502 | 30.56° C | 56% | 1002.1 hPa | 0 mm | - | 689 W/m² | - |
| 1778001199 | 31.11° C | 57% | 1001.8 hPa | 0 mm | - | 579 W/m² | - |
| 1778000896 | 30.56° C | 60% | 1001.8 hPa | 0 mm | - | 585 W/m² | - |
| 1778000593 | 30.56° C | 60% | 1002 hPa | 0 mm | - | 564 W/m² | - |
| 1778000288 | 30° C | 61% | 1002 hPa | 0 mm | - | 564 W/m² | - |
| 1777999984 | 30° C | 60% | 1001.9 hPa | 0 mm | - | 466 W/m² | - |
| 1777999679 | 30° C | 62% | 1002.2 hPa | 0 mm | - | 448 W/m² | - |
| 1777999377 | 29.44° C | 63% | 1002.1 hPa | 0 mm | - | 546 W/m² | - |
| 1777999075 | 28.89° C | 65% | 1002.1 hPa | 0 mm | - | 402 W/m² | - |
| 1777998773 | 28.33° C | 65% | 1001.9 hPa | 0 mm | - | 521 W/m² | - |
| 1777998470 | 27.78° C | 68% | 1002.1 hPa | 0 mm | - | 470 W/m² | - |
| 1777998167 | 27.78° C | 67% | 1002.1 hPa | 0 mm | - | 338 W/m² | - |
| 1777997865 | 27.78° C | 67% | 1002.2 hPa | 0 mm | - | 361 W/m² | - |
| 1777997562 | 27.78° C | 68% | 1001.9 hPa | 0 mm | - | 337 W/m² | - |
| 1777997259 | 27.78° C | 66% | 1002 hPa | 0 mm | - | 293 W/m² | - |
| 1777996957 | 27.78° C | 66% | 1001.8 hPa | 0 mm | - | 314 W/m² | - |
| 1777996653 | 27.78° C | 68% | 1001.6 hPa | 0 mm | - | 473 W/m² | - |
| 1777996349 | 27.78° C | 67% | 1001.9 hPa | 0 mm | - | 355 W/m² | - |
| 1777996046 | 27.78° C | 67% | 1001.8 hPa | 0 mm | - | 320 W/m² | - |
| 1777995742 | 26.11° C | 72% | 1001.8 hPa | 0 mm | - | 499 W/m² | - |
| 1777995438 | 25.56° C | 72% | 1001.6 hPa | 0 mm | - | 332 W/m² | - |
| 1777995136 | 25.56° C | 73% | 1001.9 hPa | 0 mm | - | 252 W/m² | - |
| 1777994833 | 25° C | 74% | 1001.7 hPa | 0 mm | - | 257 W/m² | - |
* Rain latest hour (hover to see other rain measurements)
** Current wind speed in m/s (hover to see current wind gust speed)